BAW4C RJBB-RKSI
Flight info
| Callsign | BAW4C |
|---|---|
| Flight time | 1h 26m |
| Altitude | 36000 |
| Route | SOUJA Y324 STAGE Y38 SAPRA Y685 GUKDO GUKDO2E |
| Aircraft | A320/M-SDE3FGHIRWY/LB1 |
Departure
| Time | 2026-05-07 13:42 |
|---|---|
| Airport | Kansai International Airport (RJBB) |
Arrival
| Time | 2026-05-07 15:08 |
|---|---|
| Airport | Incheon International Airport (RKSI) |
| Time | Latitude | Longitude | Altitude | Speed | Heading |
|---|---|---|---|---|---|
| 2026-05-07 13:15 | 34.43584 | 135.23034 | 23 ft | 0 kts | 50° |
| 2026-05-07 13:24 | 34.43584 | 135.23033 | 23 ft | 1 kts | 50° |
| 2026-05-07 13:24 | 34.43568 | 135.23011 | 23 ft | 4 kts | 50° |
| 2026-05-07 13:24 | 34.43551 | 135.22986 | 23 ft | 4 kts | 62° |
| 2026-05-07 13:25 | 34.43539 | 135.22970 | 23 ft | 4 kts | 27° |
| 2026-05-07 13:25 | 34.43515 | 135.22962 | 24 ft | 4 kts | 345° |
| 2026-05-07 13:25 | 34.43498 | 135.22971 | 24 ft | 0 kts | 321° |
| 2026-05-07 13:37 | 34.43499 | 135.22970 | 24 ft | 2 kts | 321° |
| 2026-05-07 13:37 | 34.43577 | 135.22892 | 23 ft | 21 kts | 320° |
| 2026-05-07 13:37 | 34.43692 | 135.22777 | 23 ft | 22 kts | 320° |
| 2026-05-07 13:37 | 34.43810 | 135.22734 | 24 ft | 19 kts | 45° |
| 2026-05-07 13:38 | 34.43924 | 135.22754 | 25 ft | 18 kts | 8° |
| 2026-05-07 13:38 | 34.44011 | 135.22857 | 23 ft | 19 kts | 49° |
| 2026-05-07 13:38 | 34.44132 | 135.22878 | 24 ft | 18 kts | 15° |
| 2026-05-07 13:38 | 34.44216 | 135.22988 | 23 ft | 21 kts | 50° |
| 2026-05-07 13:39 | 34.44317 | 135.23137 | 24 ft | 24 kts | 51° |
| 2026-05-07 13:39 | 34.44432 | 135.23314 | 24 ft | 28 kts | 51° |
| 2026-05-07 13:39 | 34.44562 | 135.23507 | 24 ft | 31 kts | 51° |
| 2026-05-07 13:39 | 34.44601 | 135.23567 | 24 ft | 2 kts | 51° |
| 2026-05-07 13:40 | 34.44640 | 135.23624 | 24 ft | 17 kts | 50° |
| 2026-05-07 13:40 | 34.44743 | 135.23776 | 24 ft | 31 kts | 51° |
| 2026-05-07 13:40 | 34.44888 | 135.23990 | 24 ft | 28 kts | 50° |
| 2026-05-07 13:40 | 34.45012 | 135.24083 | 26 ft | 21 kts | 337° |
| 2026-05-07 13:41 | 34.45030 | 135.24065 | 27 ft | 0 kts | 314° |
| 2026-05-07 13:41 | 34.45040 | 135.24053 | 26 ft | 10 kts | 316° |
| 2026-05-07 13:41 | 34.45107 | 135.23951 | 27 ft | 14 kts | 265° |
| 2026-05-07 13:41 | 34.45048 | 135.23875 | 27 ft | 26 kts | 228° |
| 2026-05-07 13:42 | 34.44776 | 135.23475 | 29 ft | 94 kts | 230° |
| 2026-05-07 13:42 | 34.44238 | 135.22702 | 26 ft | 144 kts | 229° |
| 2026-05-07 13:42 | 34.43552 | 135.21683 | 405 ft | 155 kts | 231° |
| 2026-05-07 13:42 | 34.43038 | 135.20573 | 1096 ft | 155 kts | 255° |
| 2026-05-07 13:43 | 34.43156 | 135.19251 | 1686 ft | 167 kts | 292° |
| 2026-05-07 13:43 | 34.43947 | 135.18161 | 2217 ft | 178 kts | 319° |
| 2026-05-07 13:43 | 34.45037 | 135.17454 | 2833 ft | 180 kts | 339° |
| 2026-05-07 13:43 | 34.46203 | 135.16960 | 3503 ft | 174 kts | 335° |
| 2026-05-07 13:44 | 34.47304 | 135.16391 | 4159 ft | 170 kts | 332° |
| 2026-05-07 13:44 | 34.48297 | 135.15656 | 4782 ft | 167 kts | 325° |
| 2026-05-07 13:44 | 34.48983 | 135.15133 | 5010 ft | 179 kts | 325° |
| 2026-05-07 13:44 | 34.50099 | 135.14269 | 5250 ft | 203 kts | 324° |
| 2026-05-07 13:45 | 34.51354 | 135.13283 | 5562 ft | 227 kts | 324° |
| 2026-05-07 13:45 | 34.52664 | 135.12064 | 5939 ft | 249 kts | 308° |
| 2026-05-07 13:45 | 34.53446 | 135.10141 | 6393 ft | 264 kts | 277° |
| 2026-05-07 13:45 | 34.53534 | 135.07900 | 7151 ft | 269 kts | 270° |
| 2026-05-07 13:46 | 34.53651 | 135.05664 | 8041 ft | 270 kts | 272° |
| 2026-05-07 13:46 | 34.53840 | 135.03360 | 8985 ft | 271 kts | 273° |
| 2026-05-07 13:46 | 34.54041 | 135.01113 | 9888 ft | 272 kts | 272° |
| 2026-05-07 13:46 | 34.54246 | 134.98757 | 10406 ft | 287 kts | 273° |
| 2026-05-07 13:47 | 34.54447 | 134.96282 | 10626 ft | 310 kts | 273° |
| 2026-05-07 13:47 | 34.54650 | 134.93618 | 11100 ft | 322 kts | 273° |
| 2026-05-07 13:47 | 34.54858 | 134.90858 | 11783 ft | 326 kts | 272° |
| 2026-05-07 13:47 | 34.55061 | 134.88104 | 12496 ft | 329 kts | 272° |
| 2026-05-07 13:48 | 34.55259 | 134.85364 | 13177 ft | 332 kts | 272° |
| 2026-05-07 13:48 | 34.55462 | 134.82527 | 13849 ft | 334 kts | 272° |
| 2026-05-07 13:48 | 34.55661 | 134.79707 | 14444 ft | 337 kts | 272° |
| 2026-05-07 13:48 | 34.55861 | 134.76900 | 15032 ft | 340 kts | 272° |
| 2026-05-07 13:49 | 34.56069 | 134.73995 | 15617 ft | 342 kts | 272° |
| 2026-05-07 13:49 | 34.56272 | 134.71146 | 16192 ft | 345 kts | 272° |
| 2026-05-07 13:49 | 34.56481 | 134.68194 | 16782 ft | 348 kts | 272° |
| 2026-05-07 13:49 | 34.56686 | 134.65259 | 17357 ft | 351 kts | 272° |
| 2026-05-07 13:50 | 34.56893 | 134.62297 | 17934 ft | 354 kts | 272° |
| 2026-05-07 13:50 | 34.57101 | 134.59309 | 18483 ft | 357 kts | 272° |
| 2026-05-07 13:50 | 34.57310 | 134.56305 | 19015 ft | 359 kts | 272° |
| 2026-05-07 13:50 | 34.57520 | 134.53283 | 19560 ft | 360 kts | 272° |
| 2026-05-07 13:51 | 34.57728 | 134.50284 | 20083 ft | 362 kts | 272° |
| 2026-05-07 13:51 | 34.57940 | 134.47227 | 20602 ft | 365 kts | 271° |
| 2026-05-07 13:51 | 34.58152 | 134.44153 | 21120 ft | 367 kts | 271° |
| 2026-05-07 13:51 | 34.58365 | 134.41059 | 21643 ft | 369 kts | 271° |
| 2026-05-07 13:52 | 34.58579 | 134.37946 | 22157 ft | 371 kts | 271° |
| 2026-05-07 13:52 | 34.58791 | 134.34820 | 22658 ft | 373 kts | 271° |
| 2026-05-07 13:52 | 34.59002 | 134.31676 | 23152 ft | 375 kts | 271° |
| 2026-05-07 13:52 | 34.59210 | 134.28513 | 23616 ft | 377 kts | 271° |
| 2026-05-07 13:53 | 34.59419 | 134.25333 | 24019 ft | 379 kts | 271° |
| 2026-05-07 13:53 | 34.59631 | 134.22130 | 24424 ft | 382 kts | 271° |
| 2026-05-07 13:53 | 34.59844 | 134.18909 | 24804 ft | 384 kts | 272° |
| 2026-05-07 13:53 | 34.60058 | 134.15665 | 25190 ft | 387 kts | 272° |
| 2026-05-07 13:54 | 34.60274 | 134.12402 | 25571 ft | 389 kts | 272° |
| 2026-05-07 13:54 | 34.60491 | 134.09119 | 25953 ft | 392 kts | 272° |
| 2026-05-07 13:54 | 34.60711 | 134.05817 | 26348 ft | 394 kts | 272° |
| 2026-05-07 13:54 | 34.61007 | 134.02502 | 26715 ft | 398 kts | 279° |
| 2026-05-07 13:55 | 34.61971 | 133.99314 | 27057 ft | 409 kts | 295° |
| 2026-05-07 13:55 | 34.63714 | 133.96528 | 27405 ft | 420 kts | 307° |
| 2026-05-07 13:55 | 34.65687 | 133.93896 | 27790 ft | 423 kts | 307° |
| 2026-05-07 13:55 | 34.67684 | 133.91261 | 28160 ft | 426 kts | 307° |
| 2026-05-07 13:56 | 34.69703 | 133.88612 | 28530 ft | 428 kts | 308° |
| 2026-05-07 13:56 | 34.71729 | 133.85949 | 28913 ft | 430 kts | 307° |
| 2026-05-07 13:56 | 34.73765 | 133.83266 | 29281 ft | 433 kts | 307° |
| 2026-05-07 13:56 | 34.75805 | 133.80560 | 29644 ft | 436 kts | 307° |
| 2026-05-07 13:57 | 34.77855 | 133.77832 | 29993 ft | 438 kts | 307° |
| 2026-05-07 13:57 | 34.79914 | 133.75087 | 30298 ft | 440 kts | 307° |
| 2026-05-07 13:57 | 34.81979 | 133.72331 | 30674 ft | 440 kts | 307° |
| 2026-05-07 13:57 | 34.84040 | 133.69583 | 31160 ft | 438 kts | 307° |
| 2026-05-07 13:58 | 34.86091 | 133.66849 | 31637 ft | 436 kts | 307° |
| 2026-05-07 13:58 | 34.88132 | 133.64126 | 32123 ft | 434 kts | 307° |
| 2026-05-07 13:58 | 34.90162 | 133.61418 | 32621 ft | 432 kts | 307° |
| 2026-05-07 13:58 | 34.92184 | 133.58719 | 33097 ft | 430 kts | 307° |
| 2026-05-07 13:59 | 34.94198 | 133.56032 | 33605 ft | 428 kts | 307° |
| 2026-05-07 13:59 | 34.96200 | 133.53354 | 34080 ft | 426 kts | 307° |
| 2026-05-07 13:59 | 34.98188 | 133.50687 | 34516 ft | 424 kts | 307° |
| 2026-05-07 13:59 | 35.00165 | 133.48028 | 34928 ft | 422 kts | 307° |
| 2026-05-07 14:00 | 35.02133 | 133.45379 | 35329 ft | 421 kts | 307° |
| 2026-05-07 14:00 | 35.04094 | 133.42741 | 35742 ft | 419 kts | 307° |
| 2026-05-07 14:00 | 35.06050 | 133.40106 | 35905 ft | 419 kts | 307° |
| 2026-05-07 14:01 | 35.09969 | 133.34823 | 35933 ft | 420 kts | 307° |
| 2026-05-07 14:01 | 35.13897 | 133.29529 | 35931 ft | 421 kts | 307° |
| 2026-05-07 14:02 | 35.17820 | 133.24227 | 35934 ft | 420 kts | 307° |
| 2026-05-07 14:02 | 35.21740 | 133.18924 | 35929 ft | 420 kts | 306° |
| 2026-05-07 14:03 | 35.25651 | 133.13621 | 35935 ft | 420 kts | 306° |
| 2026-05-07 14:03 | 35.29565 | 133.08310 | 35923 ft | 420 kts | 306° |
| 2026-05-07 14:04 | 35.33476 | 133.02992 | 35925 ft | 420 kts | 306° |
| 2026-05-07 14:04 | 35.37391 | 132.97667 | 35939 ft | 420 kts | 306° |
| 2026-05-07 14:05 | 35.41302 | 132.92343 | 35939 ft | 420 kts | 306° |
| 2026-05-07 14:05 | 35.45209 | 132.87012 | 35937 ft | 420 kts | 306° |
| 2026-05-07 14:06 | 35.49108 | 132.81667 | 35934 ft | 420 kts | 306° |
| 2026-05-07 14:06 | 35.53009 | 132.76325 | 35931 ft | 420 kts | 306° |
| 2026-05-07 14:07 | 35.56692 | 132.70814 | 35929 ft | 412 kts | 295° |
| 2026-05-07 14:07 | 35.58745 | 132.64397 | 35924 ft | 400 kts | 277° |
| 2026-05-07 14:08 | 35.59624 | 132.57654 | 35937 ft | 400 kts | 276° |
| 2026-05-07 14:08 | 35.60511 | 132.50913 | 35926 ft | 399 kts | 276° |
| 2026-05-07 14:09 | 35.61392 | 132.44178 | 35918 ft | 399 kts | 276° |
| 2026-05-07 14:09 | 35.62268 | 132.37440 | 35930 ft | 399 kts | 275° |
| 2026-05-07 14:10 | 35.63130 | 132.30716 | 35924 ft | 398 kts | 275° |
| 2026-05-07 14:10 | 35.63988 | 132.24005 | 35921 ft | 397 kts | 275° |
| 2026-05-07 14:11 | 35.64837 | 132.17353 | 35936 ft | 396 kts | 275° |
| 2026-05-07 14:11 | 35.65688 | 132.10678 | 35912 ft | 394 kts | 275° |
| 2026-05-07 14:12 | 35.66529 | 132.04023 | 35901 ft | 393 kts | 275° |
| 2026-05-07 14:12 | 35.67362 | 131.97381 | 35905 ft | 393 kts | 275° |
| 2026-05-07 14:13 | 35.68198 | 131.90734 | 35907 ft | 393 kts | 275° |
| 2026-05-07 14:13 | 35.69033 | 131.84090 | 35900 ft | 393 kts | 275° |
| 2026-05-07 14:14 | 35.69851 | 131.77451 | 35914 ft | 392 kts | 275° |
| 2026-05-07 14:14 | 35.70667 | 131.70823 | 35914 ft | 391 kts | 275° |
| 2026-05-07 14:15 | 35.71482 | 131.64216 | 35910 ft | 390 kts | 275° |
| 2026-05-07 14:15 | 35.72289 | 131.57623 | 35903 ft | 389 kts | 275° |
| 2026-05-07 14:16 | 35.73092 | 131.51044 | 35915 ft | 388 kts | 275° |
| 2026-05-07 14:16 | 35.73890 | 131.44492 | 35903 ft | 386 kts | 274° |
| 2026-05-07 14:17 | 35.74677 | 131.37951 | 35891 ft | 386 kts | 275° |
| 2026-05-07 14:17 | 35.75458 | 131.31408 | 35908 ft | 386 kts | 274° |
| 2026-05-07 14:18 | 35.76238 | 131.24869 | 35901 ft | 386 kts | 274° |
| 2026-05-07 14:18 | 35.77018 | 131.18340 | 35898 ft | 385 kts | 274° |
| 2026-05-07 14:19 | 35.77791 | 131.11822 | 35911 ft | 384 kts | 274° |
| 2026-05-07 14:19 | 35.78558 | 131.05318 | 35904 ft | 383 kts | 274° |
| 2026-05-07 14:20 | 35.79324 | 130.98832 | 35897 ft | 382 kts | 274° |
| 2026-05-07 14:20 | 35.80079 | 130.92357 | 35894 ft | 382 kts | 274° |
| 2026-05-07 14:21 | 35.80825 | 130.85891 | 35908 ft | 381 kts | 274° |
| 2026-05-07 14:21 | 35.81572 | 130.79442 | 35872 ft | 380 kts | 274° |
| 2026-05-07 14:22 | 35.82315 | 130.72998 | 35871 ft | 380 kts | 274° |
| 2026-05-07 14:22 | 35.83101 | 130.66546 | 35877 ft | 381 kts | 275° |
| 2026-05-07 14:23 | 35.83942 | 130.60088 | 35877 ft | 382 kts | 275° |
| 2026-05-07 14:23 | 35.84777 | 130.53626 | 35877 ft | 382 kts | 275° |
| 2026-05-07 14:24 | 35.85593 | 130.47166 | 35907 ft | 381 kts | 274° |
| 2026-05-07 14:24 | 35.86404 | 130.40707 | 35900 ft | 381 kts | 274° |
| 2026-05-07 14:25 | 35.87211 | 130.34264 | 35892 ft | 380 kts | 274° |
| 2026-05-07 14:25 | 35.88014 | 130.27825 | 35889 ft | 380 kts | 274° |
| 2026-05-07 14:26 | 35.88809 | 130.21385 | 35905 ft | 380 kts | 274° |
| 2026-05-07 14:26 | 35.89604 | 130.14946 | 35890 ft | 379 kts | 274° |
| 2026-05-07 14:27 | 35.90394 | 130.08518 | 35859 ft | 379 kts | 274° |
| 2026-05-07 14:27 | 35.91052 | 130.03169 | 35863 ft | 380 kts | 274° |
| 2026-05-07 14:28 | 35.91839 | 129.96726 | 35886 ft | 380 kts | 274° |
| 2026-05-07 14:28 | 35.92619 | 129.90281 | 35883 ft | 380 kts | 274° |
| 2026-05-07 14:29 | 35.93392 | 129.83899 | 35768 ft | 367 kts | 274° |
| 2026-05-07 14:29 | 35.93767 | 129.80816 | 35522 ft | 360 kts | 274° |
| 2026-05-07 14:29 | 35.94132 | 129.77796 | 35305 ft | 352 kts | 274° |
| 2026-05-07 14:29 | 35.94486 | 129.74837 | 35064 ft | 345 kts | 274° |
| 2026-05-07 14:30 | 35.94829 | 129.71940 | 34821 ft | 338 kts | 274° |
| 2026-05-07 14:30 | 35.95169 | 129.69078 | 34587 ft | 336 kts | 274° |
| 2026-05-07 14:30 | 35.95508 | 129.66230 | 34351 ft | 335 kts | 274° |
| 2026-05-07 14:30 | 35.95846 | 129.63381 | 34120 ft | 336 kts | 274° |
| 2026-05-07 14:31 | 35.96182 | 129.60523 | 33890 ft | 337 kts | 274° |
| 2026-05-07 14:31 | 35.96514 | 129.57660 | 33653 ft | 338 kts | 274° |
| 2026-05-07 14:31 | 35.96849 | 129.54795 | 33394 ft | 337 kts | 274° |
| 2026-05-07 14:31 | 35.97183 | 129.51936 | 33133 ft | 336 kts | 274° |
| 2026-05-07 14:32 | 35.97608 | 129.49088 | 32874 ft | 340 kts | 280° |
| 2026-05-07 14:32 | 35.98483 | 129.46336 | 32623 ft | 350 kts | 291° |
| 2026-05-07 14:32 | 35.99831 | 129.43788 | 32371 ft | 358 kts | 297° |
| 2026-05-07 14:32 | 36.01292 | 129.41297 | 32120 ft | 359 kts | 297° |
| 2026-05-07 14:33 | 36.02749 | 129.38792 | 31874 ft | 359 kts | 297° |
| 2026-05-07 14:33 | 36.04202 | 129.36279 | 31631 ft | 360 kts | 297° |
| 2026-05-07 14:33 | 36.05657 | 129.33755 | 31405 ft | 361 kts | 296° |
| 2026-05-07 14:33 | 36.07113 | 129.31229 | 31168 ft | 361 kts | 296° |
| 2026-05-07 14:34 | 36.08569 | 129.28697 | 30932 ft | 361 kts | 296° |
| 2026-05-07 14:34 | 36.10029 | 129.26160 | 30696 ft | 362 kts | 296° |
| 2026-05-07 14:34 | 36.11492 | 129.23618 | 30461 ft | 363 kts | 296° |
| 2026-05-07 14:34 | 36.12958 | 129.21070 | 30230 ft | 364 kts | 296° |
| 2026-05-07 14:35 | 36.14428 | 129.18519 | 29999 ft | 365 kts | 296° |
| 2026-05-07 14:35 | 36.15902 | 129.15957 | 29735 ft | 366 kts | 296° |
| 2026-05-07 14:35 | 36.17378 | 129.13386 | 29452 ft | 367 kts | 296° |
| 2026-05-07 14:35 | 36.18857 | 129.10808 | 29218 ft | 368 kts | 296° |
| 2026-05-07 14:36 | 36.20338 | 129.08223 | 28950 ft | 369 kts | 296° |
| 2026-05-07 14:36 | 36.21821 | 129.05628 | 28686 ft | 370 kts | 296° |
| 2026-05-07 14:36 | 36.23307 | 129.03026 | 28423 ft | 371 kts | 296° |
| 2026-05-07 14:36 | 36.24798 | 129.00412 | 28168 ft | 372 kts | 296° |
| 2026-05-07 14:37 | 36.26290 | 128.97794 | 27915 ft | 372 kts | 296° |
| 2026-05-07 14:37 | 36.29288 | 128.92544 | 27408 ft | 374 kts | 296° |
| 2026-05-07 14:37 | 36.30791 | 128.89909 | 27158 ft | 375 kts | 296° |
| 2026-05-07 14:38 | 36.32294 | 128.87268 | 26954 ft | 374 kts | 296° |
| 2026-05-07 14:38 | 36.33794 | 128.84635 | 26705 ft | 373 kts | 296° |
| 2026-05-07 14:38 | 36.35292 | 128.82003 | 26462 ft | 374 kts | 296° |
| 2026-05-07 14:38 | 36.36788 | 128.79364 | 26220 ft | 374 kts | 296° |
| 2026-05-07 14:39 | 36.38285 | 128.76723 | 25997 ft | 374 kts | 296° |
| 2026-05-07 14:39 | 36.39784 | 128.74079 | 25886 ft | 374 kts | 296° |
| 2026-05-07 14:39 | 36.41287 | 128.71431 | 25912 ft | 375 kts | 296° |
| 2026-05-07 14:39 | 36.42789 | 128.68780 | 25912 ft | 376 kts | 296° |
| 2026-05-07 14:40 | 36.44293 | 128.66128 | 25913 ft | 376 kts | 296° |
| 2026-05-07 14:40 | 36.45797 | 128.63477 | 25918 ft | 374 kts | 296° |
| 2026-05-07 14:40 | 36.47292 | 128.60839 | 25912 ft | 373 kts | 296° |
| 2026-05-07 14:40 | 36.48779 | 128.58203 | 25912 ft | 372 kts | 296° |
| 2026-05-07 14:41 | 36.50261 | 128.55569 | 25915 ft | 372 kts | 296° |
| 2026-05-07 14:41 | 36.51746 | 128.52932 | 25912 ft | 372 kts | 296° |
| 2026-05-07 14:41 | 36.53228 | 128.50300 | 25924 ft | 372 kts | 296° |
| 2026-05-07 14:41 | 36.54711 | 128.47668 | 25940 ft | 371 kts | 296° |
| 2026-05-07 14:42 | 36.56193 | 128.45038 | 25937 ft | 371 kts | 296° |
| 2026-05-07 14:42 | 36.57674 | 128.42407 | 25935 ft | 371 kts | 295° |
| 2026-05-07 14:42 | 36.59152 | 128.39777 | 25933 ft | 371 kts | 295° |
| 2026-05-07 14:42 | 36.60627 | 128.37147 | 25933 ft | 371 kts | 295° |
| 2026-05-07 14:43 | 36.62098 | 128.34515 | 25934 ft | 370 kts | 295° |
| 2026-05-07 14:43 | 36.63568 | 128.31882 | 25929 ft | 370 kts | 295° |
| 2026-05-07 14:43 | 36.65047 | 128.29256 | 25932 ft | 371 kts | 296° |
| 2026-05-07 14:43 | 36.66553 | 128.26607 | 25921 ft | 382 kts | 296° |
| 2026-05-07 14:44 | 36.68117 | 128.23862 | 25922 ft | 395 kts | 296° |
| 2026-05-07 14:44 | 36.69733 | 128.21029 | 25918 ft | 404 kts | 297° |
| 2026-05-07 14:44 | 36.71371 | 128.18163 | 25934 ft | 407 kts | 297° |
| 2026-05-07 14:44 | 36.73015 | 128.15293 | 25922 ft | 407 kts | 296° |
| 2026-05-07 14:45 | 36.74658 | 128.12423 | 25847 ft | 407 kts | 296° |
| 2026-05-07 14:45 | 36.76287 | 128.09567 | 25376 ft | 400 kts | 297° |
| 2026-05-07 14:45 | 36.77896 | 128.06745 | 24824 ft | 397 kts | 296° |
| 2026-05-07 14:45 | 36.79485 | 128.03943 | 24252 ft | 395 kts | 296° |
| 2026-05-07 14:46 | 36.81046 | 128.01184 | 23705 ft | 393 kts | 297° |
| 2026-05-07 14:46 | 36.82637 | 127.98370 | 23074 ft | 390 kts | 297° |
| 2026-05-07 14:46 | 36.84193 | 127.95608 | 22494 ft | 388 kts | 297° |
| 2026-05-07 14:46 | 36.85741 | 127.92856 | 22007 ft | 386 kts | 296° |
| 2026-05-07 14:47 | 36.87280 | 127.90121 | 21506 ft | 384 kts | 296° |
| 2026-05-07 14:47 | 36.88814 | 127.87395 | 21005 ft | 383 kts | 296° |
| 2026-05-07 14:47 | 36.90347 | 127.84676 | 20512 ft | 383 kts | 297° |
| 2026-05-07 14:47 | 36.92001 | 127.82079 | 19741 ft | 379 kts | 301° |
| 2026-05-07 14:48 | 36.93687 | 127.79571 | 18840 ft | 376 kts | 301° |
| 2026-05-07 14:48 | 36.95381 | 127.77039 | 18380 ft | 382 kts | 301° |
| 2026-05-07 14:48 | 36.97086 | 127.74484 | 17878 ft | 382 kts | 301° |
| 2026-05-07 14:48 | 36.98776 | 127.71933 | 17346 ft | 379 kts | 301° |
| 2026-05-07 14:49 | 37.00413 | 127.69439 | 16854 ft | 370 kts | 301° |
| 2026-05-07 14:49 | 37.02033 | 127.66944 | 16343 ft | 368 kts | 301° |
| 2026-05-07 14:49 | 37.03623 | 127.64453 | 15848 ft | 365 kts | 301° |
| 2026-05-07 14:49 | 37.05204 | 127.61940 | 15345 ft | 361 kts | 301° |
| 2026-05-07 14:50 | 37.06733 | 127.59468 | 14876 ft | 358 kts | 301° |
| 2026-05-07 14:50 | 37.08203 | 127.57057 | 14459 ft | 352 kts | 301° |
| 2026-05-07 14:50 | 37.09455 | 127.54488 | 14103 ft | 340 kts | 287° |
| 2026-05-07 14:50 | 37.09906 | 127.51638 | 13754 ft | 331 kts | 272° |
| 2026-05-07 14:51 | 37.10028 | 127.48821 | 13338 ft | 314 kts | 271° |
| 2026-05-07 14:51 | 37.10123 | 127.46186 | 12955 ft | 294 kts | 271° |
| 2026-05-07 14:51 | 37.10211 | 127.43660 | 12568 ft | 288 kts | 271° |
| 2026-05-07 14:51 | 37.10298 | 127.41124 | 12181 ft | 287 kts | 271° |
| 2026-05-07 14:52 | 37.10378 | 127.38657 | 11816 ft | 287 kts | 271° |
| 2026-05-07 14:52 | 37.10456 | 127.36138 | 11438 ft | 285 kts | 271° |
| 2026-05-07 14:52 | 37.10528 | 127.33658 | 11063 ft | 284 kts | 271° |
| 2026-05-07 14:52 | 37.10603 | 127.31228 | 10983 ft | 283 kts | 271° |
| 2026-05-07 14:53 | 37.10684 | 127.28719 | 10998 ft | 285 kts | 271° |
| 2026-05-07 14:53 | 37.10763 | 127.26268 | 10996 ft | 286 kts | 271° |
| 2026-05-07 14:53 | 37.10840 | 127.23779 | 10997 ft | 286 kts | 271° |
| 2026-05-07 14:53 | 37.10908 | 127.21298 | 10900 ft | 284 kts | 271° |
| 2026-05-07 14:54 | 37.10962 | 127.18830 | 10436 ft | 284 kts | 271° |
| 2026-05-07 14:54 | 37.11012 | 127.16352 | 9956 ft | 285 kts | 271° |
| 2026-05-07 14:54 | 37.11057 | 127.13869 | 9430 ft | 286 kts | 271° |
| 2026-05-07 14:54 | 37.11417 | 127.11391 | 8906 ft | 288 kts | 288° |
| 2026-05-07 14:55 | 37.12144 | 127.09113 | 8385 ft | 280 kts | 291° |
| 2026-05-07 14:55 | 37.12891 | 127.06871 | 7867 ft | 270 kts | 291° |
| 2026-05-07 14:55 | 37.13591 | 127.04761 | 7376 ft | 262 kts | 291° |
| 2026-05-07 14:55 | 37.14271 | 127.02681 | 6882 ft | 255 kts | 291° |
| 2026-05-07 14:56 | 37.14936 | 127.00614 | 6398 ft | 258 kts | 291° |
| 2026-05-07 14:56 | 37.15605 | 126.98504 | 5943 ft | 260 kts | 291° |
| 2026-05-07 14:56 | 37.16244 | 126.96435 | 5546 ft | 249 kts | 291° |
| 2026-05-07 14:56 | 37.16848 | 126.94444 | 5166 ft | 240 kts | 291° |
| 2026-05-07 14:57 | 37.17418 | 126.92549 | 4994 ft | 223 kts | 291° |
| 2026-05-07 14:57 | 37.17934 | 126.90803 | 5000 ft | 209 kts | 291° |
| 2026-05-07 14:57 | 37.18435 | 126.89099 | 5006 ft | 208 kts | 291° |
| 2026-05-07 14:57 | 37.18937 | 126.87404 | 5003 ft | 207 kts | 291° |
| 2026-05-07 14:58 | 37.19437 | 126.85714 | 4912 ft | 205 kts | 291° |
| 2026-05-07 14:58 | 37.19935 | 126.84035 | 4610 ft | 205 kts | 291° |
| 2026-05-07 14:58 | 37.20424 | 126.82354 | 4314 ft | 205 kts | 291° |
| 2026-05-07 14:58 | 37.20902 | 126.80669 | 4021 ft | 205 kts | 291° |
| 2026-05-07 14:59 | 37.21369 | 126.78986 | 3716 ft | 204 kts | 291° |
| 2026-05-07 14:59 | 37.21828 | 126.77309 | 3602 ft | 203 kts | 291° |
| 2026-05-07 14:59 | 37.22278 | 126.75630 | 3605 ft | 204 kts | 291° |
| 2026-05-07 14:59 | 37.22728 | 126.73937 | 3607 ft | 208 kts | 292° |
| 2026-05-07 15:00 | 37.23158 | 126.72178 | 3610 ft | 212 kts | 291° |
| 2026-05-07 15:00 | 37.23570 | 126.70395 | 3609 ft | 213 kts | 291° |
| 2026-05-07 15:00 | 37.23966 | 126.68641 | 3607 ft | 205 kts | 291° |
| 2026-05-07 15:00 | 37.24341 | 126.66950 | 3606 ft | 194 kts | 290° |
| 2026-05-07 15:01 | 37.24776 | 126.65424 | 3602 ft | 177 kts | 304° |
| 2026-05-07 15:01 | 37.25546 | 126.64271 | 3609 ft | 171 kts | 323° |
| 2026-05-07 15:01 | 37.26512 | 126.63407 | 3612 ft | 170 kts | 326° |
| 2026-05-07 15:01 | 37.27479 | 126.62555 | 3606 ft | 170 kts | 326° |
| 2026-05-07 15:02 | 37.28446 | 126.61700 | 3605 ft | 170 kts | 326° |
| 2026-05-07 15:02 | 37.29415 | 126.60844 | 3605 ft | 170 kts | 326° |
| 2026-05-07 15:02 | 37.30380 | 126.59991 | 3598 ft | 166 kts | 326° |
| 2026-05-07 15:02 | 37.31292 | 126.59185 | 3462 ft | 155 kts | 326° |
| 2026-05-07 15:03 | 37.32149 | 126.58426 | 3283 ft | 147 kts | 326° |
| 2026-05-07 15:03 | 37.32961 | 126.57708 | 3110 ft | 138 kts | 327° |
| 2026-05-07 15:03 | 37.33733 | 126.57025 | 2923 ft | 135 kts | 326° |
| 2026-05-07 15:03 | 37.34499 | 126.56347 | 2742 ft | 135 kts | 326° |
| 2026-05-07 15:04 | 37.35260 | 126.55674 | 2579 ft | 134 kts | 326° |
| 2026-05-07 15:04 | 37.36019 | 126.55002 | 2390 ft | 133 kts | 326° |
| 2026-05-07 15:04 | 37.36780 | 126.54328 | 2196 ft | 134 kts | 326° |
| 2026-05-07 15:04 | 37.37541 | 126.53654 | 2019 ft | 133 kts | 326° |
| 2026-05-07 15:05 | 37.38297 | 126.52984 | 1835 ft | 133 kts | 325° |
| 2026-05-07 15:05 | 37.39053 | 126.52313 | 1656 ft | 132 kts | 324° |
| 2026-05-07 15:05 | 37.39798 | 126.51653 | 1473 ft | 130 kts | 325° |
| 2026-05-07 15:05 | 37.40535 | 126.50999 | 1297 ft | 129 kts | 324° |
| 2026-05-07 15:06 | 37.41266 | 126.50350 | 1119 ft | 128 kts | 323° |
| 2026-05-07 15:06 | 37.41995 | 126.49703 | 946 ft | 128 kts | 324° |
| 2026-05-07 15:06 | 37.42725 | 126.49056 | 764 ft | 127 kts | 322° |
| 2026-05-07 15:06 | 37.43435 | 126.48426 | 599 ft | 124 kts | 323° |
| 2026-05-07 15:07 | 37.44144 | 126.47796 | 389 ft | 124 kts | 322° |
| 2026-05-07 15:07 | 37.44856 | 126.47182 | 226 ft | 123 kts | 323° |
| 2026-05-07 15:07 | 37.45568 | 126.46582 | 133 ft | 124 kts | 320° |
| 2026-05-07 15:07 | 37.46243 | 126.45931 | 33 ft | 118 kts | 322° |
| 2026-05-07 15:08 | 37.46749 | 126.45459 | 23 ft | 50 kts | 324° |
| 2026-05-07 15:08 | 37.47043 | 126.45191 | 28 ft | 63 kts | 324° |
| 2026-05-07 15:08 | 37.47383 | 126.44881 | 24 ft | 54 kts | 316° |
| 2026-05-07 15:08 | 37.47523 | 126.44583 | 24 ft | 19 kts | 295° |
| 2026-05-07 15:09 | 37.47604 | 126.44452 | 26 ft | 20 kts | 320° |
| 2026-05-07 15:09 | 37.47718 | 126.44339 | 27 ft | 22 kts | 322° |
| 2026-05-07 15:09 | 37.47772 | 126.44203 | 25 ft | 18 kts | 252° |
| 2026-05-07 15:09 | 37.47697 | 126.44080 | 29 ft | 19 kts | 234° |
| 2026-05-07 15:10 | 37.47624 | 126.43953 | 27 ft | 5 kts | 234° |
| 2026-05-07 15:10 | 37.47624 | 126.43952 | 27 ft | 0 kts | 234° |
| 2026-05-07 15:10 | 37.47612 | 126.43936 | 27 ft | 5 kts | 225° |
| 2026-05-07 15:11 | 37.47567 | 126.43916 | 26 ft | 9 kts | 166° |
| 2026-05-07 15:11 | 37.47507 | 126.43964 | 25 ft | 12 kts | 144° |
| 2026-05-07 15:11 | 37.47432 | 126.44032 | 25 ft | 15 kts | 144° |
| 2026-05-07 15:11 | 37.47417 | 126.44045 | 24 ft | 3 kts | 144° |
| 2026-05-07 15:12 | 37.47402 | 126.44059 | 24 ft | 0 kts | 144° |
| 2026-05-07 15:12 | 37.47370 | 126.44087 | 23 ft | 16 kts | 144° |
| 2026-05-07 15:12 | 37.47264 | 126.44182 | 24 ft | 21 kts | 144° |
| 2026-05-07 15:13 | 37.47136 | 126.44296 | 23 ft | 24 kts | 144° |
| 2026-05-07 15:13 | 37.46989 | 126.44426 | 23 ft | 27 kts | 145° |
| 2026-05-07 15:13 | 37.46847 | 126.44551 | 23 ft | 26 kts | 144° |
| 2026-05-07 15:13 | 37.46692 | 126.44688 | 23 ft | 29 kts | 145° |
| 2026-05-07 15:14 | 37.46569 | 126.44797 | 24 ft | 13 kts | 144° |
| 2026-05-07 15:14 | 37.46488 | 126.44870 | 25 ft | 16 kts | 144° |
| 2026-05-07 15:14 | 37.46390 | 126.44958 | 22 ft | 19 kts | 144° |
| 2026-05-07 15:14 | 37.46319 | 126.45017 | 22 ft | 11 kts | 156° |
| 2026-05-07 15:15 | 37.46252 | 126.44976 | 23 ft | 13 kts | 234° |
| 2026-05-07 15:15 | 37.46194 | 126.44874 | 23 ft | 16 kts | 234° |
| 2026-05-07 15:15 | 37.46124 | 126.44748 | 23 ft | 19 kts | 236° |
| 2026-05-07 15:15 | 37.46041 | 126.44601 | 23 ft | 20 kts | 228° |